sensor_id;sensor_type;location;lat;lon;timestamp;temperature;humidity
44271;DHT22;29963;44.594;11.368;2022-10-16T00:01:19;18.70;99.90
44271;DHT22;29963;44.594;11.368;2022-10-16T00:03:46;18.70;99.90
44271;DHT22;29963;44.594;11.368;2022-10-16T00:06:13;18.60;99.90
44271;DHT22;29963;44.594;11.368;2022-10-16T00:08:39;18.60;99.90
44271;DHT22;29963;44.594;11.368;2022-10-16T00:11:08;18.60;99.90
44271;DHT22;29963;44.594;11.368;2022-10-16T00:13:35;18.70;99.90
44271;DHT22;29963;44.594;11.368;2022-10-16T00:16:03;18.70;99.90
44271;DHT22;29963;44.594;11.368;2022-10-16T00:18:29;18.70;99.90
44271;DHT22;29963;44.594;11.368;2022-10-16T00:20:55;18.70;99.90
44271;DHT22;29963;44.594;11.368;2022-10-16T00:23:22;18.70;99.90
44271;DHT22;29963;44.594;11.368;2022-10-16T00:26:15;18.70;99.90
44271;DHT22;29963;44.594;11.368;2022-10-16T00:28:41;18.60;99.90
44271;DHT22;29963;44.594;11.368;2022-10-16T00:31:10;18.60;99.90
44271;DHT22;29963;44.594;11.368;2022-10-16T00:33:37;18.60;99.90
44271;DHT22;29963;44.594;11.368;2022-10-16T00:36:04;18.60;99.90
44271;DHT22;29963;44.594;11.368;2022-10-16T00:38:30;18.60;99.90
44271;DHT22;29963;44.594;11.368;2022-10-16T00:40:56;18.50;99.90
44271;DHT22;29963;44.594;11.368;2022-10-16T00:43:58;18.50;99.90
44271;DHT22;29963;44.594;11.368;2022-10-16T00:46:39;18.50;99.90
44271;DHT22;29963;44.594;11.368;2022-10-16T00:49:16;18.40;99.90
44271;DHT22;29963;44.594;11.368;2022-10-16T00:54:30;18.40;99.90
44271;DHT22;29963;44.594;11.368;2022-10-16T00:56:58;18.40;99.90
44271;DHT22;29963;44.594;11.368;2022-10-16T00:59:30;18.30;99.90
44271;DHT22;29963;44.594;11.368;2022-10-16T01:01:58;18.20;99.90
44271;DHT22;29963;44.594;11.368;2022-10-16T01:04:24;18.30;99.90
44271;DHT22;29963;44.594;11.368;2022-10-16T01:09:23;18.30;99.90
44271;DHT22;29963;44.594;11.368;2022-10-16T01:12:09;18.30;99.90
44271;DHT22;29963;44.594;11.368;2022-10-16T01:14:53;18.20;99.90
44271;DHT22;29963;44.594;11.368;2022-10-16T01:17:32;18.20;99.90
44271;DHT22;29963;44.594;11.368;2022-10-16T01:20:24;18.20;99.90
44271;DHT22;29963;44.594;11.368;2022-10-16T01:28:15;18.20;99.90
44271;DHT22;29963;44.594;11.368;2022-10-16T01:30:44;18.10;99.90
44271;DHT22;29963;44.594;11.368;2022-10-16T01:33:26;18.10;99.90
44271;DHT22;29963;44.594;11.368;2022-10-16T01:35:58;18.10;99.90
44271;DHT22;29963;44.594;11.368;2022-10-16T01:38:35;18.10;99.90
44271;DHT22;29963;44.594;11.368;2022-10-16T01:43:56;18.10;99.90
44271;DHT22;29963;44.594;11.368;2022-10-16T01:46:24;18.10;99.90
44271;DHT22;29963;44.594;11.368;2022-10-16T01:48:52;18.20;99.90
44271;DHT22;29963;44.594;11.368;2022-10-16T01:51:19;18.20;99.90
44271;DHT22;29963;44.594;11.368;2022-10-16T01:53:49;18.20;99.90
44271;DHT22;29963;44.594;11.368;2022-10-16T01:56:17;18.20;99.90
44271;DHT22;29963;44.594;11.368;2022-10-16T01:58:51;18.10;99.90
44271;DHT22;29963;44.594;11.368;2022-10-16T02:01:20;18.20;99.90
44271;DHT22;29963;44.594;11.368;2022-10-16T02:03:46;18.10;99.90
44271;DHT22;29963;44.594;11.368;2022-10-16T02:06:15;18.10;99.90
44271;DHT22;29963;44.594;11.368;2022-10-16T02:08:41;18.20;99.90
44271;DHT22;29963;44.594;11.368;2022-10-16T02:11:10;18.20;99.90
44271;DHT22;29963;44.594;11.368;2022-10-16T02:13:43;18.20;99.90
44271;DHT22;29963;44.594;11.368;2022-10-16T02:16:11;18.20;99.90
44271;DHT22;29963;44.594;11.368;2022-10-16T02:18:38;18.20;99.90
44271;DHT22;29963;44.594;11.368;2022-10-16T02:21:17;18.20;99.90
44271;DHT22;29963;44.594;11.368;2022-10-16T02:26:35;18.20;99.90
44271;DHT22;29963;44.594;11.368;2022-10-16T02:29:07;18.20;99.90
44271;DHT22;29963;44.594;11.368;2022-10-16T02:31:35;18.20;99.90
44271;DHT22;29963;44.594;11.368;2022-10-16T02:34:05;18.20;99.90
44271;DHT22;29963;44.594;11.368;2022-10-16T02:36:32;18.20;99.90
44271;DHT22;29963;44.594;11.368;2022-10-16T02:38:58;18.20;99.90
44271;DHT22;29963;44.594;11.368;2022-10-16T02:41:26;18.10;99.90
44271;DHT22;29963;44.594;11.368;2022-10-16T02:43:52;18.10;99.90
44271;DHT22;29963;44.594;11.368;2022-10-16T02:46:20;18.20;99.90
44271;DHT22;29963;44.594;11.368;2022-10-16T02:48:46;18.20;99.90
44271;DHT22;29963;44.594;11.368;2022-10-16T02:51:11;18.20;99.90
44271;DHT22;29963;44.594;11.368;2022-10-16T02:53:37;18.20;99.90
44271;DHT22;29963;44.594;11.368;2022-10-16T02:56:03;18.20;99.90
44271;DHT22;29963;44.594;11.368;2022-10-16T02:58:28;18.20;99.90
44271;DHT22;29963;44.594;11.368;2022-10-16T03:00:55;18.20;99.90
44271;DHT22;29963;44.594;11.368;2022-10-16T03:03:21;18.20;99.90
44271;DHT22;29963;44.594;11.368;2022-10-16T03:05:46;18.20;99.90
44271;DHT22;29963;44.594;11.368;2022-10-16T03:08:12;18.20;99.90
44271;DHT22;29963;44.594;11.368;2022-10-16T03:10:38;18.20;99.90
44271;DHT22;29963;44.594;11.368;2022-10-16T03:13:07;18.20;99.90
44271;DHT22;29963;44.594;11.368;2022-10-16T03:15:32;18.20;99.90
44271;DHT22;29963;44.594;11.368;2022-10-16T03:17:58;18.20;99.90
44271;DHT22;29963;44.594;11.368;2022-10-16T03:20:24;18.20;99.90
44271;DHT22;29963;44.594;11.368;2022-10-16T03:22:50;18.20;99.90
44271;DHT22;29963;44.594;11.368;2022-10-16T03:25:16;18.20;99.90
44271;DHT22;29963;44.594;11.368;2022-10-16T03:27:41;18.20;99.90
44271;DHT22;29963;44.594;11.368;2022-10-16T03:30:08;18.20;99.90
44271;DHT22;29963;44.594;11.368;2022-10-16T03:32:33;18.10;99.90
44271;DHT22;29963;44.594;11.368;2022-10-16T03:34:59;18.10;99.90
44271;DHT22;29963;44.594;11.368;2022-10-16T03:37:25;18.10;99.90
44271;DHT22;29963;44.594;11.368;2022-10-16T03:39:50;18.10;99.90
44271;DHT22;29963;44.594;11.368;2022-10-16T03:42:16;18.10;99.90
44271;DHT22;29963;44.594;11.368;2022-10-16T03:44:42;18.00;99.90
44271;DHT22;29963;44.594;11.368;2022-10-16T03:47:08;17.90;99.90
44271;DHT22;29963;44.594;11.368;2022-10-16T03:49:33;17.80;99.90
44271;DHT22;29963;44.594;11.368;2022-10-16T03:51:59;17.80;99.90
44271;DHT22;29963;44.594;11.368;2022-10-16T03:54:25;17.80;99.90
44271;DHT22;29963;44.594;11.368;2022-10-16T03:56:53;17.70;99.90
44271;DHT22;29963;44.594;11.368;2022-10-16T03:59:19;17.70;99.90
44271;DHT22;29963;44.594;11.368;2022-10-16T04:01:44;17.60;99.90
44271;DHT22;29963;44.594;11.368;2022-10-16T04:04:10;17.60;99.90
44271;DHT22;29963;44.594;11.368;2022-10-16T04:06:35;17.50;99.90
44271;DHT22;29963;44.594;11.368;2022-10-16T04:09:01;17.50;99.90
44271;DHT22;29963;44.594;11.368;2022-10-16T04:11:27;17.50;99.90
44271;DHT22;29963;44.594;11.368;2022-10-16T04:13:53;17.50;99.90
44271;DHT22;29963;44.594;11.368;2022-10-16T04:16:18;17.50;99.90
44271;DHT22;29963;44.594;11.368;2022-10-16T04:18:44;17.50;99.90
44271;DHT22;29963;44.594;11.368;2022-10-16T04:21:10;17.50;99.90
44271;DHT22;29963;44.594;11.368;2022-10-16T04:23:35;17.60;99.90
44271;DHT22;29963;44.594;11.368;2022-10-16T04:26:01;17.50;99.90
44271;DHT22;29963;44.594;11.368;2022-10-16T04:28:27;17.50;99.90
44271;DHT22;29963;44.594;11.368;2022-10-16T04:30:53;17.40;99.90
44271;DHT22;29963;44.594;11.368;2022-10-16T04:33:19;17.40;99.90
44271;DHT22;29963;44.594;11.368;2022-10-16T04:35:44;17.30;99.90
44271;DHT22;29963;44.594;11.368;2022-10-16T04:38:10;17.30;99.90
44271;DHT22;29963;44.594;11.368;2022-10-16T04:40:36;17.30;99.90
44271;DHT22;29963;44.594;11.368;2022-10-16T04:43:03;17.30;99.90
44271;DHT22;29963;44.594;11.368;2022-10-16T04:45:29;17.20;99.90
44271;DHT22;29963;44.594;11.368;2022-10-16T04:47:58;17.10;99.90
44271;DHT22;29963;44.594;11.368;2022-10-16T04:50:24;17.00;99.90
44271;DHT22;29963;44.594;11.368;2022-10-16T04:52:50;17.00;99.90
44271;DHT22;29963;44.594;11.368;2022-10-16T04:55:16;17.00;99.90
44271;DHT22;29963;44.594;11.368;2022-10-16T04:57:41;17.00;99.90
44271;DHT22;29963;44.594;11.368;2022-10-16T05:00:08;17.00;99.90
44271;DHT22;29963;44.594;11.368;2022-10-16T05:02:37;16.90;99.90
44271;DHT22;29963;44.594;11.368;2022-10-16T05:05:03;16.90;99.90
44271;DHT22;29963;44.594;11.368;2022-10-16T05:07:28;17.00;99.90
44271;DHT22;29963;44.594;11.368;2022-10-16T05:09:54;16.90;99.90
44271;DHT22;29963;44.594;11.368;2022-10-16T05:12:20;17.00;99.90
44271;DHT22;29963;44.594;11.368;2022-10-16T05:14:45;16.90;99.90
44271;DHT22;29963;44.594;11.368;2022-10-16T05:17:11;17.00;99.90
44271;DHT22;29963;44.594;11.368;2022-10-16T05:19:37;17.00;99.90
44271;DHT22;29963;44.594;11.368;2022-10-16T05:22:02;17.00;99.90
44271;DHT22;29963;44.594;11.368;2022-10-16T05:24:28;17.00;99.90
44271;DHT22;29963;44.594;11.368;2022-10-16T05:26:53;17.00;99.90
44271;DHT22;29963;44.594;11.368;2022-10-16T05:29:19;17.00;99.90
44271;DHT22;29963;44.594;11.368;2022-10-16T05:31:45;17.10;99.90
44271;DHT22;29963;44.594;11.368;2022-10-16T05:34:11;17.10;99.90
44271;DHT22;29963;44.594;11.368;2022-10-16T05:36:36;17.20;99.90
44271;DHT22;29963;44.594;11.368;2022-10-16T05:39:02;17.20;99.90
44271;DHT22;29963;44.594;11.368;2022-10-16T05:41:28;17.20;99.90
44271;DHT22;29963;44.594;11.368;2022-10-16T05:43:54;17.20;99.90
44271;DHT22;29963;44.594;11.368;2022-10-16T05:46:20;17.20;99.90
44271;DHT22;29963;44.594;11.368;2022-10-16T05:48:45;17.20;99.90
44271;DHT22;29963;44.594;11.368;2022-10-16T05:51:13;17.20;99.90
44271;DHT22;29963;44.594;11.368;2022-10-16T05:53:40;17.10;99.90
44271;DHT22;29963;44.594;11.368;2022-10-16T05:56:07;17.10;99.90
44271;DHT22;29963;44.594;11.368;2022-10-16T05:58:35;17.10;99.90
44271;DHT22;29963;44.594;11.368;2022-10-16T06:01:04;17.20;99.90
44271;DHT22;29963;44.594;11.368;2022-10-16T06:03:32;17.30;99.90
44271;DHT22;29963;44.594;11.368;2022-10-16T06:05:58;17.30;99.90
44271;DHT22;29963;44.594;11.368;2022-10-16T06:08:24;17.30;99.90
44271;DHT22;29963;44.594;11.368;2022-10-16T06:11:01;17.40;99.90
44271;DHT22;29963;44.594;11.368;2022-10-16T06:13:27;17.40;99.90
44271;DHT22;29963;44.594;11.368;2022-10-16T06:15:53;17.50;99.90
44271;DHT22;29963;44.594;11.368;2022-10-16T06:18:18;17.50;99.90
44271;DHT22;29963;44.594;11.368;2022-10-16T06:20:44;17.30;99.90
44271;DHT22;29963;44.594;11.368;2022-10-16T06:23:09;17.20;99.90
44271;DHT22;29963;44.594;11.368;2022-10-16T06:25:35;17.20;99.90
44271;DHT22;29963;44.594;11.368;2022-10-16T06:28:01;17.30;99.90
44271;DHT22;29963;44.594;11.368;2022-10-16T06:30:26;17.30;99.90
44271;DHT22;29963;44.594;11.368;2022-10-16T06:32:52;17.30;99.90
44271;DHT22;29963;44.594;11.368;2022-10-16T06:35:18;17.40;99.90
44271;DHT22;29963;44.594;11.368;2022-10-16T06:37:43;17.30;99.90
44271;DHT22;29963;44.594;11.368;2022-10-16T06:40:09;17.30;99.90
44271;DHT22;29963;44.594;11.368;2022-10-16T06:42:35;17.30;99.90
44271;DHT22;29963;44.594;11.368;2022-10-16T06:45:00;17.20;99.90
44271;DHT22;29963;44.594;11.368;2022-10-16T06:47:27;17.20;99.90
44271;DHT22;29963;44.594;11.368;2022-10-16T06:49:53;17.20;99.90
44271;DHT22;29963;44.594;11.368;2022-10-16T06:52:18;17.20;99.90
44271;DHT22;29963;44.594;11.368;2022-10-16T06:54:44;17.20;99.90
44271;DHT22;29963;44.594;11.368;2022-10-16T06:57:10;17.20;99.90
44271;DHT22;29963;44.594;11.368;2022-10-16T06:59:35;17.10;99.90
44271;DHT22;29963;44.594;11.368;2022-10-16T07:02:01;17.20;99.90
44271;DHT22;29963;44.594;11.368;2022-10-16T07:04:27;17.20;99.90
44271;DHT22;29963;44.594;11.368;2022-10-16T07:06:52;17.30;99.90
44271;DHT22;29963;44.594;11.368;2022-10-16T07:09:18;17.40;99.90
44271;DHT22;29963;44.594;11.368;2022-10-16T07:11:43;17.50;99.90
44271;DHT22;29963;44.594;11.368;2022-10-16T07:14:15;17.50;99.90
44271;DHT22;29963;44.594;11.368;2022-10-16T07:16:41;17.60;99.90
44271;DHT22;29963;44.594;11.368;2022-10-16T07:19:08;17.70;99.90
44271;DHT22;29963;44.594;11.368;2022-10-16T07:21:34;17.70;99.90
44271;DHT22;29963;44.594;11.368;2022-10-16T07:24:05;17.70;99.90
44271;DHT22;29963;44.594;11.368;2022-10-16T07:26:33;17.80;99.90
44271;DHT22;29963;44.594;11.368;2022-10-16T07:28:59;17.70;99.90
44271;DHT22;29963;44.594;11.368;2022-10-16T07:31:26;17.70;99.90
44271;DHT22;29963;44.594;11.368;2022-10-16T07:33:52;17.70;99.90
44271;DHT22;29963;44.594;11.368;2022-10-16T07:36:18;17.80;99.90
44271;DHT22;29963;44.594;11.368;2022-10-16T07:38:45;17.70;99.90
44271;DHT22;29963;44.594;11.368;2022-10-16T07:41:16;17.80;99.90
44271;DHT22;29963;44.594;11.368;2022-10-16T07:43:49;17.90;99.90
44271;DHT22;29963;44.594;11.368;2022-10-16T07:46:16;18.00;99.90
44271;DHT22;29963;44.594;11.368;2022-10-16T07:48:42;18.00;99.90
44271;DHT22;29963;44.594;11.368;2022-10-16T07:51:14;18.10;99.90
44271;DHT22;29963;44.594;11.368;2022-10-16T07:53:39;18.10;99.90
44271;DHT22;29963;44.594;11.368;2022-10-16T07:56:06;18.20;99.90
44271;DHT22;29963;44.594;11.368;2022-10-16T07:58:33;18.30;99.90
44271;DHT22;29963;44.594;11.368;2022-10-16T08:01:03;18.40;99.90
44271;DHT22;29963;44.594;11.368;2022-10-16T08:03:29;18.30;99.90
44271;DHT22;29963;44.594;11.368;2022-10-16T08:05:57;18.30;99.90
44271;DHT22;29963;44.594;11.368;2022-10-16T08:08:22;18.40;99.90
44271;DHT22;29963;44.594;11.368;2022-10-16T08:10:48;18.50;99.90
44271;DHT22;29963;44.594;11.368;2022-10-16T08:13:14;18.70;99.90
44271;DHT22;29963;44.594;11.368;2022-10-16T08:15:41;18.80;99.90
44271;DHT22;29963;44.594;11.368;2022-10-16T08:18:07;19.00;99.90
44271;DHT22;29963;44.594;11.368;2022-10-16T08:20:33;19.00;99.90
44271;DHT22;29963;44.594;11.368;2022-10-16T08:22:59;19.10;99.90
44271;DHT22;29963;44.594;11.368;2022-10-16T08:25:26;19.20;99.90
44271;DHT22;29963;44.594;11.368;2022-10-16T08:27:51;19.20;99.90
44271;DHT22;29963;44.594;11.368;2022-10-16T08:30:19;19.20;99.90
44271;DHT22;29963;44.594;11.368;2022-10-16T08:32:45;19.20;99.90
44271;DHT22;29963;44.594;11.368;2022-10-16T08:35:12;19.30;99.90
44271;DHT22;29963;44.594;11.368;2022-10-16T08:37:41;19.40;99.90
44271;DHT22;29963;44.594;11.368;2022-10-16T08:40:32;19.40;99.90
44271;DHT22;29963;44.594;11.368;2022-10-16T08:48:36;19.60;99.90
44271;DHT22;29963;44.594;11.368;2022-10-16T08:51:09;19.60;99.90
44271;DHT22;29963;44.594;11.368;2022-10-16T08:54:03;19.70;99.90
44271;DHT22;29963;44.594;11.368;2022-10-16T08:56:30;19.70;99.90
44271;DHT22;29963;44.594;11.368;2022-10-16T08:58:59;19.80;99.90
44271;DHT22;29963;44.594;11.368;2022-10-16T09:01:37;19.90;99.90
44271;DHT22;29963;44.594;11.368;2022-10-16T09:12:39;20.30;99.90
44271;DHT22;29963;44.594;11.368;2022-10-16T09:15:32;20.30;99.90
44271;DHT22;29963;44.594;11.368;2022-10-16T09:21:15;20.40;99.90
44271;DHT22;29963;44.594;11.368;2022-10-16T09:23:41;20.60;99.90
44271;DHT22;29963;44.594;11.368;2022-10-16T09:26:12;20.60;99.90
44271;DHT22;29963;44.594;11.368;2022-10-16T09:28:38;20.70;99.90
44271;DHT22;29963;44.594;11.368;2022-10-16T09:31:04;20.70;99.90
44271;DHT22;29963;44.594;11.368;2022-10-16T09:33:36;20.80;99.90
44271;DHT22;29963;44.594;11.368;2022-10-16T09:36:04;20.90;99.90
44271;DHT22;29963;44.594;11.368;2022-10-16T09:38:33;20.90;99.90
44271;DHT22;29963;44.594;11.368;2022-10-16T09:41:24;20.90;99.90
44271;DHT22;29963;44.594;11.368;2022-10-16T09:43:58;20.90;99.90
44271;DHT22;29963;44.594;11.368;2022-10-16T09:46:33;21.00;99.90
44271;DHT22;29963;44.594;11.368;2022-10-16T09:49:25;21.10;99.90
44271;DHT22;29963;44.594;11.368;2022-10-16T09:52:06;21.10;99.90
44271;DHT22;29963;44.594;11.368;2022-10-16T09:54:36;21.20;99.90
44271;DHT22;29963;44.594;11.368;2022-10-16T09:57:11;21.20;99.90
44271;DHT22;29963;44.594;11.368;2022-10-16T09:59:55;21.30;99.90
44271;DHT22;29963;44.594;11.368;2022-10-16T10:02:34;21.40;99.90
44271;DHT22;29963;44.594;11.368;2022-10-16T10:05:00;21.50;99.90
44271;DHT22;29963;44.594;11.368;2022-10-16T10:07:29;21.60;99.90
44271;DHT22;29963;44.594;11.368;2022-10-16T10:09:58;21.60;99.90
44271;DHT22;29963;44.594;11.368;2022-10-16T10:12:26;21.60;99.90
44271;DHT22;29963;44.594;11.368;2022-10-16T10:14:54;21.70;99.90
44271;DHT22;29963;44.594;11.368;2022-10-16T10:17:23;21.70;99.90
44271;DHT22;29963;44.594;11.368;2022-10-16T10:19:52;21.70;99.90
44271;DHT22;29963;44.594;11.368;2022-10-16T10:27:36;22.00;99.90
44271;DHT22;29963;44.594;11.368;2022-10-16T10:35:44;22.10;99.90
44271;DHT22;29963;44.594;11.368;2022-10-16T10:45:54;22.50;99.90
44271;DHT22;29963;44.594;11.368;2022-10-16T10:48:58;22.60;99.90
44271;DHT22;29963;44.594;11.368;2022-10-16T10:51:44;22.60;99.90
44271;DHT22;29963;44.594;11.368;2022-10-16T10:54:15;22.60;99.90
44271;DHT22;29963;44.594;11.368;2022-10-16T10:57:38;22.70;99.90
44271;DHT22;29963;44.594;11.368;2022-10-16T10:59:57;22.70;99.90
44271;DHT22;29963;44.594;11.368;2022-10-16T11:02:36;22.70;99.90
44271;DHT22;29963;44.594;11.368;2022-10-16T11:16:21;23.10;99.90
44271;DHT22;29963;44.594;11.368;2022-10-16T11:21:49;23.20;99.90
44271;DHT22;29963;44.594;11.368;2022-10-16T11:27:37;23.20;99.90
44271;DHT22;29963;44.594;11.368;2022-10-16T11:40:50;23.60;99.90
44271;DHT22;29963;44.594;11.368;2022-10-16T11:43:22;23.70;99.90
44271;DHT22;29963;44.594;11.368;2022-10-16T11:45:51;23.70;99.90
44271;DHT22;29963;44.594;11.368;2022-10-16T11:48:21;23.70;99.90
44271;DHT22;29963;44.594;11.368;2022-10-16T11:53:35;23.70;99.90
44271;DHT22;29963;44.594;11.368;2022-10-16T11:56:03;23.70;99.90
44271;DHT22;29963;44.594;11.368;2022-10-16T11:58:45;23.80;99.90
44271;DHT22;29963;44.594;11.368;2022-10-16T12:01:38;23.80;99.90
44271;DHT22;29963;44.594;11.368;2022-10-16T12:04:14;23.90;99.90
44271;DHT22;29963;44.594;11.368;2022-10-16T12:06:52;23.90;99.90
44271;DHT22;29963;44.594;11.368;2022-10-16T12:09:22;23.90;99.90
44271;DHT22;29963;44.594;11.368;2022-10-16T12:11:49;24.00;99.90
44271;DHT22;29963;44.594;11.368;2022-10-16T12:16:54;24.20;99.90
44271;DHT22;29963;44.594;11.368;2022-10-16T12:19:21;24.20;99.90
44271;DHT22;29963;44.594;11.368;2022-10-16T12:21:47;24.20;99.90
44271;DHT22;29963;44.594;11.368;2022-10-16T12:26:47;24.30;99.90
44271;DHT22;29963;44.594;11.368;2022-10-16T12:29:20;24.40;99.90
44271;DHT22;29963;44.594;11.368;2022-10-16T12:31:47;24.40;99.90
44271;DHT22;29963;44.594;11.368;2022-10-16T12:34:14;24.50;99.90
44271;DHT22;29963;44.594;11.368;2022-10-16T12:36:43;24.60;99.90
44271;DHT22;29963;44.594;11.368;2022-10-16T12:39:16;24.70;99.90
44271;DHT22;29963;44.594;11.368;2022-10-16T12:41:45;24.80;99.90
44271;DHT22;29963;44.594;11.368;2022-10-16T12:44:23;24.90;99.90
44271;DHT22;29963;44.594;11.368;2022-10-16T12:46:49;25.00;99.80
44271;DHT22;29963;44.594;11.368;2022-10-16T12:49:20;25.10;99.90
44271;DHT22;29963;44.594;11.368;2022-10-16T12:51:46;25.10;99.90
44271;DHT22;29963;44.594;11.368;2022-10-16T12:54:31;25.20;99.80
44271;DHT22;29963;44.594;11.368;2022-10-16T12:57:18;25.30;99.20
44271;DHT22;29963;44.594;11.368;2022-10-16T13:00:07;25.40;99.10
44271;DHT22;29963;44.594;11.368;2022-10-16T13:05:22;25.60;98.60
44271;DHT22;29963;44.594;11.368;2022-10-16T13:07:56;25.50;98.40
44271;DHT22;29963;44.594;11.368;2022-10-16T13:10:26;25.50;98.50
44271;DHT22;29963;44.594;11.368;2022-10-16T13:13:13;25.60;98.40
44271;DHT22;29963;44.594;11.368;2022-10-16T13:20:35;25.60;98.10
44271;DHT22;29963;44.594;11.368;2022-10-16T13:25:33;25.90;98.20
44271;DHT22;29963;44.594;11.368;2022-10-16T13:28:08;25.90;97.70
44271;DHT22;29963;44.594;11.368;2022-10-16T13:30:50;26.00;97.40
44271;DHT22;29963;44.594;11.368;2022-10-16T13:33:29;26.10;96.80
44271;DHT22;29963;44.594;11.368;2022-10-16T13:35:56;26.00;96.80
44271;DHT22;29963;44.594;11.368;2022-10-16T13:38:28;26.20;97.40
44271;DHT22;29963;44.594;11.368;2022-10-16T13:40:58;26.50;97.00
44271;DHT22;29963;44.594;11.368;2022-10-16T13:45:55;26.80;96.60
44271;DHT22;29963;44.594;11.368;2022-10-16T13:48:20;26.80;96.30
44271;DHT22;29963;44.594;11.368;2022-10-16T13:50:46;26.70;96.10
44271;DHT22;29963;44.594;11.368;2022-10-16T13:53:14;26.60;95.90
44271;DHT22;29963;44.594;11.368;2022-10-16T13:55:40;26.50;96.00
44271;DHT22;29963;44.594;11.368;2022-10-16T13:58:11;26.30;96.30
44271;DHT22;29963;44.594;11.368;2022-10-16T14:00:41;26.30;96.50
44271;DHT22;29963;44.594;11.368;2022-10-16T14:03:17;26.30;96.50
44271;DHT22;29963;44.594;11.368;2022-10-16T14:05:45;26.30;96.30
44271;DHT22;29963;44.594;11.368;2022-10-16T14:08:12;26.40;96.60
44271;DHT22;29963;44.594;11.368;2022-10-16T14:10:38;26.70;96.10
44271;DHT22;29963;44.594;11.368;2022-10-16T14:13:07;27.00;95.90
44271;DHT22;29963;44.594;11.368;2022-10-16T14:15:36;27.30;95.30
44271;DHT22;29963;44.594;11.368;2022-10-16T14:18:01;27.60;95.60
44271;DHT22;29963;44.594;11.368;2022-10-16T14:20:28;27.90;95.10
44271;DHT22;29963;44.594;11.368;2022-10-16T14:23:37;28.00;93.60
44271;DHT22;29963;44.594;11.368;2022-10-16T14:25:43;28.40;93.80
44271;DHT22;29963;44.594;11.368;2022-10-16T14:28:19;28.60;93.10
44271;DHT22;29963;44.594;11.368;2022-10-16T14:30:49;28.60;92.80
44271;DHT22;29963;44.594;11.368;2022-10-16T14:38:36;28.80;92.50
44271;DHT22;29963;44.594;11.368;2022-10-16T14:41:03;28.50;92.40
44271;DHT22;29963;44.594;11.368;2022-10-16T14:45:55;27.80;93.00
44271;DHT22;29963;44.594;11.368;2022-10-16T14:48:21;27.50;93.10
44271;DHT22;29963;44.594;11.368;2022-10-16T14:50:49;27.10;93.60
44271;DHT22;29963;44.594;11.368;2022-10-16T14:53:15;26.80;94.00
44271;DHT22;29963;44.594;11.368;2022-10-16T14:55:41;26.70;94.50
44271;DHT22;29963;44.594;11.368;2022-10-16T14:58:13;26.50;94.80
44271;DHT22;29963;44.594;11.368;2022-10-16T15:00:39;26.40;95.00
44271;DHT22;29963;44.594;11.368;2022-10-16T15:03:05;26.20;94.80
44271;DHT22;29963;44.594;11.368;2022-10-16T15:05:33;26.10;95.30
44271;DHT22;29963;44.594;11.368;2022-10-16T15:07:59;25.90;95.30
44271;DHT22;29963;44.594;11.368;2022-10-16T15:10:25;25.80;95.60
44271;DHT22;29963;44.594;11.368;2022-10-16T15:12:52;25.70;95.70
44271;DHT22;29963;44.594;11.368;2022-10-16T15:15:37;25.50;96.10
44271;DHT22;29963;44.594;11.368;2022-10-16T15:18:03;25.50;96.50
44271;DHT22;29963;44.594;11.368;2022-10-16T15:20:30;25.40;96.60
44271;DHT22;29963;44.594;11.368;2022-10-16T15:23:00;25.30;96.50
44271;DHT22;29963;44.594;11.368;2022-10-16T15:27:51;25.10;96.60
44271;DHT22;29963;44.594;11.368;2022-10-16T15:30:16;25.10;97.20
44271;DHT22;29963;44.594;11.368;2022-10-16T15:32:42;25.00;97.00
44271;DHT22;29963;44.594;11.368;2022-10-16T15:35:08;24.90;97.40
44271;DHT22;29963;44.594;11.368;2022-10-16T15:37:34;24.90;97.40
44271;DHT22;29963;44.594;11.368;2022-10-16T15:39:59;24.80;97.60
44271;DHT22;29963;44.594;11.368;2022-10-16T15:42:25;24.80;97.70
44271;DHT22;29963;44.594;11.368;2022-10-16T15:44:50;24.70;97.80
44271;DHT22;29963;44.594;11.368;2022-10-16T15:47:16;24.60;97.90
44271;DHT22;29963;44.594;11.368;2022-10-16T15:49:41;24.60;98.10
44271;DHT22;29963;44.594;11.368;2022-10-16T15:52:07;24.60;98.20
44271;DHT22;29963;44.594;11.368;2022-10-16T15:54:32;24.50;98.10
44271;DHT22;29963;44.594;11.368;2022-10-16T15:56:58;24.50;98.40
44271;DHT22;29963;44.594;11.368;2022-10-16T15:59:23;24.50;98.60
44271;DHT22;29963;44.594;11.368;2022-10-16T16:01:49;24.40;99.10
44271;DHT22;29963;44.594;11.368;2022-10-16T16:04:14;24.40;99.90
44271;DHT22;29963;44.594;11.368;2022-10-16T16:06:41;24.40;99.90
44271;DHT22;29963;44.594;11.368;2022-10-16T16:09:13;24.40;99.90
44271;DHT22;29963;44.594;11.368;2022-10-16T16:11:42;24.30;99.90
44271;DHT22;29963;44.594;11.368;2022-10-16T16:14:09;24.30;99.40
44271;DHT22;29963;44.594;11.368;2022-10-16T16:16:36;24.30;99.20
44271;DHT22;29963;44.594;11.368;2022-10-16T16:19:03;24.20;99.10
44271;DHT22;29963;44.594;11.368;2022-10-16T16:21:30;24.10;99.30
44271;DHT22;29963;44.594;11.368;2022-10-16T16:23:55;24.10;99.30
44271;DHT22;29963;44.594;11.368;2022-10-16T16:26:25;24.00;99.30
44271;DHT22;29963;44.594;11.368;2022-10-16T16:28:51;24.00;99.30
44271;DHT22;29963;44.594;11.368;2022-10-16T16:31:17;23.90;99.10
44271;DHT22;29963;44.594;11.368;2022-10-16T16:33:42;23.90;99.20
44271;DHT22;29963;44.594;11.368;2022-10-16T16:36:08;23.80;99.30
44271;DHT22;29963;44.594;11.368;2022-10-16T16:38:34;23.80;99.40
44271;DHT22;29963;44.594;11.368;2022-10-16T16:41:10;23.70;99.50
44271;DHT22;29963;44.594;11.368;2022-10-16T16:43:36;23.70;99.50
44271;DHT22;29963;44.594;11.368;2022-10-16T16:46:01;23.60;99.80
44271;DHT22;29963;44.594;11.368;2022-10-16T16:48:27;23.60;99.90
44271;DHT22;29963;44.594;11.368;2022-10-16T16:50:52;23.50;99.90
44271;DHT22;29963;44.594;11.368;2022-10-16T16:53:18;23.50;99.90
44271;DHT22;29963;44.594;11.368;2022-10-16T16:55:43;23.40;99.90
44271;DHT22;29963;44.594;11.368;2022-10-16T16:58:09;23.40;99.90
44271;DHT22;29963;44.594;11.368;2022-10-16T17:00:34;23.30;99.90
44271;DHT22;29963;44.594;11.368;2022-10-16T17:03:00;23.30;99.90
44271;DHT22;29963;44.594;11.368;2022-10-16T17:05:25;23.30;99.90
44271;DHT22;29963;44.594;11.368;2022-10-16T17:07:51;23.20;99.90
44271;DHT22;29963;44.594;11.368;2022-10-16T17:10:16;23.20;99.90
44271;DHT22;29963;44.594;11.368;2022-10-16T17:12:42;23.20;99.90
44271;DHT22;29963;44.594;11.368;2022-10-16T17:15:08;23.10;99.90
44271;DHT22;29963;44.594;11.368;2022-10-16T17:17:33;23.10;99.90